Nearby METAR Reports

 

KOAK - Oakland, California, USA
Distance from station: SSW 6mi, 9km
Updated: Fri, 20-Apr-2018 4:53am PDT
Clear
Clear
 Wind from calm
Wind: Calm
Temperature: 46°F , 8°C
Dew Point: 46°F , 8°C
Humidity: 100%
Barometer: 30.16 inHg , 1021.3 hPa
Clouds: Clear
Visibility: 10 miles , 16 km
2018/04/20 11:53 KOAK 201153Z 00000KT 10SM CLR 08/08 A3016 RMK AO2 SLP212 T00830078 10122 20083 53002
KHWD - Hayward, California, USA
Distance from station: SSE 8mi, 12km
Updated: Fri, 20-Apr-2018 4:54am PDT
Clear
Clear
 Wind from ENE
Wind: ENE 5 mph , 7 km/h
Temperature: 48°F , 9°C
Wind Chill: 46°F , 8°C
Dew Point: 41°F , 5°C
Humidity: 76%
Barometer: 30.15 inHg , 1021 hPa
Clouds: Clear
Visibility: 10 miles , 16 km
2018/04/20 11:54 KHWD 201154Z 07004KT 10SM CLR 09/05 A3015 RMK AO2 SLP220 T00890050 10122 20089 53003
KSFO - San Francisco, California, USA
Distance from station: SW 15mi, 25km
Updated: Fri, 20-Apr-2018 4:56am PDT
Clear
Clear
 Wind from calm
Wind: Calm
Temperature: 48°F , 9°C
Dew Point: 43°F , 6°C
Humidity: 82%
Barometer: 30.15 inHg , 1021 hPa
Clouds: Clear
Visibility: 10 miles , 16 km
2018/04/20 11:56 KSFO 201156Z 00000KT 10SM CLR 09/06 A3015 RMK AO2 SLP209 T00940061 10117 20094 50003
 
KCCR - Concord, California, USA
Distance from station: NNE 17mi, 27km
Updated: Fri, 20-Apr-2018 4:53am PDT
Clear
Clear
 Wind from S
Wind: S 7 mph , 11 km/h
Temperature: 50°F , 10°C
Wind Chill: 47°F , 8°C
Dew Point: 46°F , 8°C
Humidity: 88%
Barometer: 30.14 inHg , 1020.7 hPa
Clouds: Clear
Visibility: 10 miles , 16 km
2018/04/20 11:53 KCCR 201153Z AUTO 18006KT 10SM CLR 10/08 A3014 RMK AO2 SLP193 T01000078 10133 20100 53004
KSQL - San Carlos Airpo, California, USA
Distance from station: SSW 18mi, 29km
Updated: Fri, 20-Apr-2018 5:20am PDT
Clear
Clear
 Wind from calm
Wind: Calm
Temperature: 48°F , 9°C
Dew Point: 43°F , 6°C
Humidity: 82%
Barometer: 30.15 inHg , 1021 hPa
Clouds: Clear
Visibility: 9 miles , 14 km
2018/04/20 12:20 KSQL 201220Z AUTO 00000KT 9SM CLR 09/06 A3015 RMK AO2
KLVK - Livermore, California, USA
Distance from station: ESE 20mi, 31km
Updated: Fri, 20-Apr-2018 4:53am PDT
Clear
Clear
 Wind from E
Wind: E 3 mph , 6 km/h
Temperature: 45°F , 7°C
Dew Point: 43°F , 6°C
Humidity: 93%
Barometer: 30.15 inHg , 1021 hPa
Clouds: Clear
Visibility: 10 miles , 16 km
2018/04/20 11:53 KLVK 201153Z AUTO 08003KT 10SM CLR 07/06 A3015 RMK AO2 SLP209 T00670061 10106 20061 53005 $
 
KPAO - Palo Alto, California, USA
Distance from station: S 21mi, 34km
Updated: Thu, 19-Apr-2018 8:47pm PDT
NOT Current
Clear
Clear
 Wind from varies
Wind: varies 5 mph , 7 km/h
Barometer: 30.11 inHg , 1019.6 hPa
Clouds: Clear
Visibility: 10 miles , 16 km
2018/04/20 03:47 KPAO 200347Z VRB04KT 10SM SKC A3011
KHAF - Half Moon Bay, California, USA
Distance from station: SW 25mi, 41km
Updated: Fri, 20-Apr-2018 5:20am PDT
Overcast
Overcast
 Wind from NNE
Wind: NNE 3 mph , 6 km/h
Temperature: 46°F , 8°C
Dew Point: 45°F , 7°C
Humidity: 93%
Barometer: 30.16 inHg , 1021.3 hPa
Clouds: Overcast
Visibility: 9 miles , 14 km
Cloud details: Overcast 700 ft
2018/04/20 12:20 KHAF 201220Z AUTO 03003KT 9SM OVC007 08/07 A3016 RMK AO2
KNUQ - Moffett Nas/Mtn, California, USA
Distance from station: SSE 26mi, 42km
Updated: Fri, 20-Apr-2018 4:56am PDT
Clear
Clear
 Wind from calm
Wind: Calm
Temperature: 48°F , 9°C
Dew Point: 41°F , 5°C
Humidity: 76%
Barometer: 30.16 inHg , 1021.3 hPa
Clouds: Clear
Visibility: 10 miles , 16 km
2018/04/20 11:56 KNUQ 201156Z 00000KT 10SM CLR 09/05 A3016 RMK AO2 SLP216 T00940050 10122 20089 53003
 
KAPC - Napa, California, USA
Distance from station: NNW 30mi, 49km
Updated: Fri, 20-Apr-2018 4:54am PDT
Clear
Clear
 Wind from ENE
Wind: ENE 5 mph , 7 km/h
Temperature: 39°F , 4°C
Wind Chill: 35°F , 2°C
Dew Point: 39°F , 4°C
Humidity: 100%
Barometer: 30.15 inHg , 1021 hPa
Clouds: Clear
Visibility: 10 miles , 16 km
2018/04/20 11:54 KAPC 201154Z AUTO 07004KT 10SM CLR 04/04 A3015 RMK AO2 SLP199 T00440039 10106 20039 53004
KSJC - San Jose, California, USA
Distance from station: SSE 31mi, 50km
Updated: Fri, 20-Apr-2018 4:53am PDT
Clear
Clear
 Wind from S
Wind: S 3 mph , 6 km/h
Temperature: 48°F , 9°C
Dew Point: 43°F , 6°C
Humidity: 82%
Barometer: 30.16 inHg , 1021.3 hPa
Clouds: Clear
Visibility: 10 miles , 16 km
2018/04/20 11:53 KSJC 201153Z AUTO 17003KT 10SM CLR 09/06 A3016 RMK AO2 SLP211 T00890061 10133 20089 53002
KDVO - Novato/Gnoss Fld, California, USA
Distance from station: NW 34mi, 54km
Updated: Fri, 20-Apr-2018 5:15am PDT
Clear
Clear
 Wind from calm
Wind: Calm
Temperature: 46°F , 8°C
Dew Point: 45°F , 7°C
Humidity: 93%
Barometer: 30.15 inHg , 1021 hPa
Clouds: Clear
Visibility: 10 miles , 16 km
2018/04/20 12:15 KDVO 201215Z AUTO 00000KT 10SM CLR 08/07 A3015 RMK AO2
 
KRHV - San Jose/Reid, California, USA
Distance from station: SSE 37mi, 59km
Updated: Thu, 19-Apr-2018 9:55pm PDT
NOT Current
Clear
Clear
 Wind from calm
Wind: Calm
Temperature: 54°F , 12°C
Dew Point: 45°F , 7°C
Humidity: 72%
Barometer: 30.12 inHg , 1020 hPa
Clouds: Clear
Visibility: 10 miles , 16 km
2018/04/20 04:55 KRHV 200455Z 00000KT 10SM SKC 12/07 A3012 RMK LAST
KSUU - Travis Afb/Fairf, California, USA
Distance from station: NNE 37mi, 59km
Updated: Fri, 20-Apr-2018 4:58am PDT
Clear
Clear
 Wind from SW
Wind: SW 8 mph , 13 km/h
Temperature: 46°F , 8°C
Wind Chill: 42°F , 6°C
Dew Point: 45°F , 7°C
Humidity: 93%
Barometer: 30.10 inHg , 1019.3 hPa
Clouds: Clear
Visibility: 10 miles , 16 km
2018/04/20 11:58 KSUU 201158Z AUTO 23007KT 10SM CLR 08/07 A3010 RMK AO2 SLP200 T00840065 10121 20084 53006 $
KO69 - Petaluma, California, USA
Distance from station: NW 41mi, 66km
Updated: Fri, 20-Apr-2018 5:15am PDT
Clear
Clear
 Wind from calm
Wind: Calm
Temperature: 41°F , 5°C
Dew Point: 41°F , 5°C
Humidity: 100%
Barometer: 30.15 inHg , 1021 hPa
Clouds: Clear
Visibility: 10 miles , 16 km
2018/04/20 12:15 KO69 201215Z AUTO 00000KT 10SM CLR 05/05 A3015 RMK A01
 
KVCB - Vacaville, California, USA
Distance from station: NNE 44mi, 71km
Updated: Fri, 20-Apr-2018 4:53am PDT
Clear
Clear
 Wind from calm
Wind: Calm
Temperature: 45°F , 7°C
Dew Point: 41°F , 5°C
Humidity: 87%
Barometer: 30.12 inHg , 1020 hPa
Clouds: Clear
Visibility: 10 miles , 16 km
2018/04/20 11:53 KVCB 201153Z AUTO 00000KT 10SM CLR 07/05 A3012 RMK AO2 SLP200 T00720050 10156 20072 53007